createdAt,value
2022-08-11T00:04:37.051Z,4.15
2022-08-11T00:09:40.338Z,3.53
2022-08-11T00:14:43.990Z,4.45
2022-08-11T00:20:15.871Z,4.40
2022-08-11T00:30:22.900Z,4.37
2022-08-11T00:35:54.979Z,4.50
2022-08-11T00:40:57.248Z,4.18
2022-08-11T00:46:18.625Z,4.20
2022-08-11T00:52:04.013Z,4.50
2022-08-11T00:57:37.376Z,4.72
2022-08-11T01:02:59.350Z,5.00
2022-08-11T01:08:30.844Z,4.85
2022-08-11T01:14:11.503Z,4.63
2022-08-11T01:20:44.725Z,5.18
2022-08-11T01:25:57.092Z,4.72
2022-08-11T01:31:43.367Z,5.10
2022-08-11T01:37:04.705Z,4.93
2022-08-11T01:42:35.749Z,5.05
2022-08-11T01:48:09.710Z,5.57
2022-08-11T01:53:29.380Z,4.70
2022-08-11T01:58:50.306Z,5.20
2022-08-11T02:04:18.680Z,5.70
2022-08-11T02:09:51.728Z,5.68
2022-08-11T02:15:34.699Z,5.85
2022-08-11T02:21:15.624Z,6.30
2022-08-11T02:26:41.340Z,6.18
2022-08-11T02:32:30.787Z,5.90
2022-08-11T02:37:33.963Z,5.60
2022-08-11T02:42:45.815Z,5.68
2022-08-11T02:48:19.401Z,5.75
2022-08-11T02:53:30.720Z,6.07
2022-08-11T02:59:09.435Z,6.15
2022-08-11T03:04:21.104Z,6.60
2022-08-11T03:09:54.317Z,5.90
2022-08-11T03:15:41.553Z,6.22
2022-08-11T03:20:59.277Z,6.50
2022-08-11T03:26:04.272Z,6.22
2022-08-11T03:31:15.927Z,5.85
2022-08-11T03:36:27.575Z,6.15
2022-08-11T03:42:02.303Z,6.40
2022-08-11T03:47:26.057Z,6.38
2022-08-11T03:53:07.600Z,6.25
2022-08-11T03:58:22.305Z,6.25
2022-08-11T04:03:37.426Z,5.68
2022-08-11T04:09:04.763Z,6.00
2022-08-11T04:15:01.118Z,5.38
2022-08-11T04:20:28.392Z,5.38
2022-08-11T04:25:55.862Z,5.60
2022-08-11T04:31:51.801Z,6.47
2022-08-11T04:37:36.798Z,6.70
2022-08-11T04:43:23.238Z,6.35
2022-08-11T04:49:09.452Z,5.80
2022-08-11T04:54:48.249Z,7.00
2022-08-11T05:00:20.832Z,6.57
2022-08-11T05:05:35.455Z,7.07
2022-08-11T05:10:43.781Z,7.82
2022-08-11T05:16:11.110Z,7.25
2022-08-11T05:21:44.433Z,6.70
2022-08-11T05:32:35.337Z,6.32
2022-08-11T05:38:03.443Z,6.72
2022-08-11T05:43:32.089Z,6.82
2022-08-11T05:48:55.017Z,6.20
2022-08-11T05:54:29.146Z,5.77
2022-08-11T05:59:32.703Z,5.25
2022-08-11T06:04:38.274Z,5.80
2022-08-11T06:09:50.634Z,5.65
2022-08-11T06:14:57.601Z,4.97
2022-08-11T06:20:14.128Z,6.10
2022-08-11T06:25:19.683Z,5.10
2022-08-11T06:30:39.918Z,5.05
2022-08-11T06:36:11.132Z,4.93
2022-08-11T06:41:33.244Z,4.70
2022-08-11T06:46:39.474Z,4.57
2022-08-11T06:52:01.781Z,4.72
2022-08-11T06:57:29.821Z,4.70
2022-08-11T07:02:47.924Z,4.95
2022-08-11T07:08:37.400Z,4.20
2022-08-11T07:13:59.697Z,4.35
2022-08-11T07:19:23.945Z,4.10
2022-08-11T07:24:59.317Z,4.38
2022-08-11T07:30:10.961Z,4.15
2022-08-11T07:35:17.862Z,4.10
2022-08-11T07:40:23.250Z,4.03
2022-08-11T07:45:45.169Z,3.50
2022-08-11T07:51:06.967Z,3.90
2022-08-11T07:56:09.663Z,3.90
2022-08-11T08:01:41.725Z,3.90
2022-08-11T08:07:03.391Z,3.75
2022-08-11T08:12:26.425Z,4.00
2022-08-11T08:23:13.198Z,3.70
2022-08-11T08:28:17.126Z,4.30
2022-08-11T08:33:21.672Z,3.95
2022-08-11T08:38:25.380Z,5.43
2022-08-11T08:43:29.080Z,4.35
2022-08-11T08:48:32.247Z,4.68
2022-08-11T08:53:36.795Z,4.30
2022-08-11T08:58:40.516Z,4.68
2022-08-11T09:04:05.412Z,4.65
2022-08-11T09:09:11.807Z,4.35
2022-08-11T09:14:56.823Z,4.45
2022-08-11T09:20:06.911Z,4.15
2022-08-11T09:25:29.961Z,4.57
2022-08-11T09:30:32.833Z,4.60
2022-08-11T09:35:38.821Z,4.10
2022-08-11T09:40:46.264Z,4.57
2022-08-11T09:45:58.789Z,4.85
2022-08-11T09:51:01.864Z,3.65
2022-08-11T09:56:26.397Z,3.92
2022-08-11T10:01:32.927Z,4.07
2022-08-11T10:06:56.740Z,3.95
2022-08-11T10:12:00.280Z,3.63
2022-08-11T10:17:06.761Z,3.72
2022-08-11T10:22:28.036Z,3.70
2022-08-11T10:33:12.669Z,3.42
2022-08-11T10:38:35.700Z,3.20
2022-08-11T10:44:01.981Z,3.20
2022-08-11T10:49:04.162Z,3.30
2022-08-11T10:54:25.504Z,3.42
2022-08-11T10:59:29.133Z,3.30
2022-08-11T11:05:10.334Z,3.30
2022-08-11T11:10:13.097Z,3.28
2022-08-11T11:15:39.478Z,3.40
2022-08-11T11:20:47.403Z,3.30
2022-08-11T11:26:31.009Z,3.35
2022-08-11T11:32:05.294Z,3.15
2022-08-11T11:37:08.204Z,2.90
2022-08-11T11:42:11.470Z,2.90
2022-08-11T11:47:14.444Z,2.85
2022-08-11T11:52:19.758Z,3.03
2022-08-11T11:57:41.364Z,2.70
2022-08-11T12:03:07.477Z,3.35
2022-08-11T12:08:18.142Z,3.55
2022-08-11T12:13:39.237Z,2.92
2022-08-11T12:18:43.433Z,3.13
2022-08-11T12:24:09.034Z,2.90
2022-08-11T12:29:12.398Z,3.47
2022-08-11T12:34:16.553Z,3.67
2022-08-11T12:40:16.573Z,3.00
2022-08-11T12:45:30.184Z,2.95
2022-08-11T12:50:53.184Z,3.10
2022-08-11T12:56:16.202Z,2.70
2022-08-11T13:01:38.249Z,3.33
2022-08-11T13:06:42.275Z,3.08
2022-08-11T13:12:04.647Z,3.30
2022-08-11T13:17:43.554Z,3.03
2022-08-11T13:22:46.794Z,3.08
2022-08-11T13:32:53.961Z,3.00
2022-08-11T13:38:23.456Z,3.00
2022-08-11T13:43:27.673Z,2.97
2022-08-11T13:48:30.663Z,2.88
2022-08-11T13:53:34.839Z,2.90
2022-08-11T13:58:41.178Z,3.22
2022-08-11T14:04:31.485Z,2.80
2022-08-11T14:09:09.390Z,3.00
2022-08-11T14:14:18.656Z,2.95
2022-08-11T14:19:24.485Z,2.80
2022-08-11T14:24:27.759Z,3.00
2022-08-11T14:29:32.672Z,3.00
2022-08-11T14:34:48.857Z,3.40
2022-08-11T14:40:02.903Z,3.67
2022-08-11T14:45:54.165Z,2.95
2022-08-11T14:50:55.015Z,2.92
2022-08-11T14:56:17.018Z,2.90
2022-08-11T15:01:40.049Z,3.10
2022-08-11T15:06:43.312Z,3.22
2022-08-11T15:12:04.878Z,3.35
2022-08-11T15:17:08.371Z,2.90
2022-08-11T15:22:29.653Z,3.13
2022-08-11T15:27:52.264Z,3.03
2022-08-11T15:33:14.968Z,3.20
2022-08-11T15:38:20.387Z,2.85
2022-08-11T15:43:58.214Z,2.90
2022-08-11T15:49:13.762Z,3.00
2022-08-11T15:54:31.046Z,2.95
2022-08-11T15:59:55.491Z,3.13
2022-08-11T16:05:02.393Z,2.85
2022-08-11T16:10:09.605Z,2.90
2022-08-11T16:15:31.924Z,3.40
2022-08-11T16:20:35.320Z,2.92
2022-08-11T16:27:03.405Z,2.80
2022-08-11T16:31:02.116Z,3.10
2022-08-11T16:36:24.645Z,3.08
2022-08-11T16:41:50.245Z,2.97
2022-08-11T16:47:13.261Z,2.88
2022-08-11T16:57:45.315Z,3.40
2022-08-11T17:03:10.493Z,3.05
2022-08-11T17:08:33.749Z,3.10
2022-08-11T17:13:43.068Z,2.90
2022-08-11T17:18:56.984Z,3.05
2022-08-11T17:24:08.691Z,2.90
2022-08-11T17:29:12.822Z,2.92
2022-08-11T17:34:34.473Z,2.45
2022-08-11T17:39:40.376Z,2.92
2022-08-11T17:45:02.633Z,2.95
2022-08-11T17:50:09.202Z,3.35
2022-08-11T17:55:51.786Z,2.78
2022-08-11T18:00:56.977Z,3.05
2022-08-11T18:06:03.932Z,2.85
2022-08-11T18:12:10.880Z,2.75
2022-08-11T18:17:08.205Z,3.10
2022-08-11T18:22:39.709Z,2.80
2022-08-11T18:28:03.250Z,3.17
2022-08-11T18:33:50.457Z,2.85
2022-08-11T18:39:07.499Z,3.10
2022-08-11T18:44:32.780Z,3.03
2022-08-11T18:50:03.798Z,3.92
2022-08-11T18:55:30.786Z,3.40
2022-08-11T19:00:53.388Z,5.18
2022-08-11T19:11:59.813Z,10.68
2022-08-11T19:17:44.491Z,5.30
2022-08-11T19:23:07.644Z,4.45
2022-08-11T19:28:30.000Z,5.80
2022-08-11T19:34:02.937Z,6.07
2022-08-11T19:39:32.756Z,8.88
2022-08-11T19:44:54.199Z,7.63
2022-08-11T19:50:20.176Z,6.03
2022-08-11T19:55:46.277Z,4.53
2022-08-11T20:01:26.229Z,4.13
2022-08-11T20:06:48.179Z,4.13
2022-08-11T20:12:14.172Z,17.73
2022-08-11T20:17:37.412Z,17.63
2022-08-11T20:22:59.066Z,5.73
2022-08-11T20:28:22.262Z,4.82
2022-08-11T20:33:44.273Z,6.63
2022-08-11T20:39:05.846Z,15.98
2022-08-11T20:44:28.018Z,12.68
2022-08-11T20:49:55.229Z,11.80
2022-08-11T20:55:25.755Z,6.18
2022-08-11T21:01:04.216Z,5.28
2022-08-11T21:06:31.246Z,6.65
2022-08-11T21:11:55.223Z,6.13
2022-08-11T21:17:27.852Z,5.03
2022-08-11T21:22:59.180Z,4.50
2022-08-11T21:28:28.403Z,3.90
2022-08-11T21:33:50.627Z,4.75
2022-08-11T21:39:12.583Z,3.80
2022-08-11T21:44:35.284Z,3.90
2022-08-11T21:49:59.285Z,3.80
2022-08-11T21:55:20.546Z,3.80
2022-08-11T22:00:41.703Z,4.47
2022-08-11T22:06:05.199Z,3.90
2022-08-11T22:11:32.095Z,4.50
2022-08-11T22:16:54.621Z,12.30
2022-08-11T22:22:17.482Z,8.13
2022-08-11T22:27:39.921Z,5.70
2022-08-11T22:33:03.023Z,4.15
2022-08-11T22:38:24.640Z,5.00
2022-08-11T22:43:46.550Z,4.72
2022-08-11T22:49:08.610Z,4.65
2022-08-11T22:54:29.747Z,4.50
2022-08-11T22:59:51.424Z,4.38
2022-08-11T23:05:13.156Z,4.70
2022-08-11T23:10:34.377Z,4.47
2022-08-11T23:15:55.947Z,4.57
2022-08-11T23:21:17.564Z,4.35
2022-08-11T23:26:40.168Z,4.40
2022-08-11T23:32:02.689Z,4.43
2022-08-11T23:37:24.057Z,4.43
2022-08-11T23:42:46.360Z,4.60
2022-08-11T23:48:08.759Z,4.53
2022-08-11T23:53:31.962Z,4.07
2022-08-11T23:58:53.505Z,4.15
